sensor_id;sensor_type;location;lat;lon;timestamp;pressure;altitude;pressure_sealevel;temperature;humidity
75298;BME280;63896;45.990;18.688;2022-11-13T00:02:13;102366.50;;;5.05;100.00
75298;BME280;63896;45.990;18.688;2022-11-13T00:05:34;102368.00;;;5.08;100.00
75298;BME280;63896;45.990;18.688;2022-11-13T00:08:55;102375.22;;;5.06;100.00
75298;BME280;63896;45.990;18.688;2022-11-13T00:12:17;102368.53;;;5.02;100.00
75298;BME280;63896;45.990;18.688;2022-11-13T00:15:38;102369.34;;;5.02;100.00
75298;BME280;63896;45.990;18.688;2022-11-13T00:18:59;102357.13;;;4.92;100.00
75298;BME280;63896;45.990;18.688;2022-11-13T00:22:21;102347.88;;;4.97;100.00
75298;BME280;63896;45.990;18.688;2022-11-13T00:25:42;102349.09;;;4.93;100.00
75298;BME280;63896;45.990;18.688;2022-11-13T00:29:03;102343.56;;;4.96;100.00
75298;BME280;63896;45.990;18.688;2022-11-13T00:32:24;102345.94;;;4.99;100.00
75298;BME280;63896;45.990;18.688;2022-11-13T00:35:46;102347.50;;;5.02;100.00
75298;BME280;63896;45.990;18.688;2022-11-13T00:39:08;102343.78;;;5.04;100.00
75298;BME280;63896;45.990;18.688;2022-11-13T00:42:29;102345.44;;;5.05;100.00
75298;BME280;63896;45.990;18.688;2022-11-13T00:45:50;102351.59;;;4.95;100.00
75298;BME280;63896;45.990;18.688;2022-11-13T00:49:12;102336.22;;;4.90;100.00
75298;BME280;63896;45.990;18.688;2022-11-13T00:52:33;102336.06;;;4.92;100.00
75298;BME280;63896;45.990;18.688;2022-11-13T00:55:54;102336.59;;;4.86;100.00
75298;BME280;63896;45.990;18.688;2022-11-13T00:59:16;102333.81;;;4.87;100.00
75298;BME280;63896;45.990;18.688;2022-11-13T01:02:37;102331.34;;;4.86;100.00
75298;BME280;63896;45.990;18.688;2022-11-13T01:05:58;102324.53;;;4.83;100.00
75298;BME280;63896;45.990;18.688;2022-11-13T01:09:20;102325.06;;;4.77;100.00
75298;BME280;63896;45.990;18.688;2022-11-13T01:12:41;102332.00;;;4.78;100.00
75298;BME280;63896;45.990;18.688;2022-11-13T01:16:07;102322.69;;;4.74;100.00
75298;BME280;63896;45.990;18.688;2022-11-13T01:19:30;102328.22;;;4.71;100.00
75298;BME280;63896;45.990;18.688;2022-11-13T01:22:52;102329.75;;;4.73;100.00
75298;BME280;63896;45.990;18.688;2022-11-13T01:26:24;102324.66;;;4.61;100.00
75298;BME280;63896;45.990;18.688;2022-11-13T01:29:45;102323.25;;;4.57;100.00
75298;BME280;63896;45.990;18.688;2022-11-13T01:33:06;102317.69;;;4.50;100.00
75298;BME280;63896;45.990;18.688;2022-11-13T01:36:28;102319.09;;;4.54;100.00
75298;BME280;63896;45.990;18.688;2022-11-13T01:39:49;102315.31;;;4.68;100.00
75298;BME280;63896;45.990;18.688;2022-11-13T01:43:37;102315.81;;;4.62;100.00
75298;BME280;63896;45.990;18.688;2022-11-13T01:46:59;102320.19;;;4.52;100.00
75298;BME280;63896;45.990;18.688;2022-11-13T01:50:20;102323.19;;;4.47;100.00
75298;BME280;63896;45.990;18.688;2022-11-13T01:53:42;102321.06;;;4.41;100.00
75298;BME280;63896;45.990;18.688;2022-11-13T01:57:05;102310.75;;;4.49;100.00
75298;BME280;63896;45.990;18.688;2022-11-13T02:00:26;102311.75;;;4.37;100.00
75298;BME280;63896;45.990;18.688;2022-11-13T02:03:48;102309.75;;;4.29;100.00
75298;BME280;63896;45.990;18.688;2022-11-13T02:07:12;102312.00;;;4.34;100.00
75298;BME280;63896;45.990;18.688;2022-11-13T02:10:34;102308.19;;;4.38;100.00
75298;BME280;63896;45.990;18.688;2022-11-13T02:13:56;102303.28;;;4.33;100.00
75298;BME280;63896;45.990;18.688;2022-11-13T02:17:33;102311.81;;;4.26;100.00
75298;BME280;63896;45.990;18.688;2022-11-13T02:24:28;102295.41;;;4.13;100.00
75298;BME280;63896;45.990;18.688;2022-11-13T02:27:52;102297.81;;;4.05;100.00
75298;BME280;63896;45.990;18.688;2022-11-13T02:31:14;102300.56;;;4.03;100.00
75298;BME280;63896;45.990;18.688;2022-11-13T02:34:35;102306.44;;;3.96;100.00
75298;BME280;63896;45.990;18.688;2022-11-13T02:38:00;102308.72;;;3.89;100.00
75298;BME280;63896;45.990;18.688;2022-11-13T02:41:21;102302.97;;;3.95;100.00
75298;BME280;63896;45.990;18.688;2022-11-13T02:44:43;102313.00;;;3.90;100.00
75298;BME280;63896;45.990;18.688;2022-11-13T02:48:05;102307.16;;;3.87;100.00
75298;BME280;63896;45.990;18.688;2022-11-13T02:51:27;102313.88;;;3.79;100.00
75298;BME280;63896;45.990;18.688;2022-11-13T02:54:48;102310.44;;;3.68;100.00
75298;BME280;63896;45.990;18.688;2022-11-13T02:58:09;102313.81;;;3.59;100.00
75298;BME280;63896;45.990;18.688;2022-11-13T03:01:31;102301.28;;;3.51;100.00
75298;BME280;63896;45.990;18.688;2022-11-13T03:04:52;102305.44;;;3.54;100.00
75298;BME280;63896;45.990;18.688;2022-11-13T03:08:33;102297.09;;;3.49;100.00
75298;BME280;63896;45.990;18.688;2022-11-13T03:11:56;102294.13;;;3.53;100.00
75298;BME280;63896;45.990;18.688;2022-11-13T03:15:17;102293.19;;;3.54;100.00
75298;BME280;63896;45.990;18.688;2022-11-13T03:18:39;102296.75;;;3.53;100.00
75298;BME280;63896;45.990;18.688;2022-11-13T03:22:00;102296.06;;;3.51;100.00
75298;BME280;63896;45.990;18.688;2022-11-13T03:25:21;102296.50;;;3.56;100.00
75298;BME280;63896;45.990;18.688;2022-11-13T03:28:42;102292.59;;;3.51;100.00
75298;BME280;63896;45.990;18.688;2022-11-13T03:32:04;102297.34;;;3.46;100.00
75298;BME280;63896;45.990;18.688;2022-11-13T03:35:25;102289.59;;;3.44;99.77
75298;BME280;63896;45.990;18.688;2022-11-13T03:38:52;102277.31;;;3.45;100.00
75298;BME280;63896;45.990;18.688;2022-11-13T03:42:13;102285.41;;;3.53;99.95
75298;BME280;63896;45.990;18.688;2022-11-13T03:45:34;102278.63;;;3.50;99.51
75298;BME280;63896;45.990;18.688;2022-11-13T03:48:56;102276.94;;;3.49;99.69
75298;BME280;63896;45.990;18.688;2022-11-13T03:52:16;102282.31;;;3.48;99.71
75298;BME280;63896;45.990;18.688;2022-11-13T03:55:38;102276.94;;;3.49;99.44
75298;BME280;63896;45.990;18.688;2022-11-13T03:58:59;102273.50;;;3.49;99.28
75298;BME280;63896;45.990;18.688;2022-11-13T04:02:21;102266.72;;;3.46;99.19
75298;BME280;63896;45.990;18.688;2022-11-13T04:05:42;102265.38;;;3.41;99.18
75298;BME280;63896;45.990;18.688;2022-11-13T04:09:04;102260.28;;;3.39;99.28
75298;BME280;63896;45.990;18.688;2022-11-13T04:12:25;102266.97;;;3.32;99.50
75298;BME280;63896;45.990;18.688;2022-11-13T04:15:47;102265.66;;;3.26;98.97
75298;BME280;63896;45.990;18.688;2022-11-13T04:19:08;102259.31;;;3.29;98.95
75298;BME280;63896;45.990;18.688;2022-11-13T04:22:29;102268.16;;;3.28;98.70
75298;BME280;63896;45.990;18.688;2022-11-13T04:25:50;102257.44;;;3.20;98.98
75298;BME280;63896;45.990;18.688;2022-11-13T04:29:19;102256.25;;;3.24;99.31
75298;BME280;63896;45.990;18.688;2022-11-13T04:32:40;102266.84;;;3.22;99.02
75298;BME280;63896;45.990;18.688;2022-11-13T04:36:01;102259.34;;;3.18;99.00
75298;BME280;63896;45.990;18.688;2022-11-13T04:39:22;102261.25;;;3.16;99.05
75298;BME280;63896;45.990;18.688;2022-11-13T04:42:44;102257.19;;;3.23;99.26
75298;BME280;63896;45.990;18.688;2022-11-13T04:46:08;102260.75;;;3.22;99.09
75298;BME280;63896;45.990;18.688;2022-11-13T04:49:30;102259.47;;;3.16;99.37
75298;BME280;63896;45.990;18.688;2022-11-13T04:52:51;102262.56;;;3.10;99.42
75298;BME280;63896;45.990;18.688;2022-11-13T04:56:13;102262.69;;;3.09;99.17
75298;BME280;63896;45.990;18.688;2022-11-13T04:59:34;102266.50;;;3.05;99.42
75298;BME280;63896;45.990;18.688;2022-11-13T05:02:55;102261.38;;;3.03;99.51
75298;BME280;63896;45.990;18.688;2022-11-13T05:06:17;102251.72;;;3.04;99.47
75298;BME280;63896;45.990;18.688;2022-11-13T05:09:38;102252.81;;;3.12;99.11
75298;BME280;63896;45.990;18.688;2022-11-13T05:13:00;102258.16;;;3.00;99.15
75298;BME280;63896;45.990;18.688;2022-11-13T05:16:21;102271.38;;;2.98;99.02
75298;BME280;63896;45.990;18.688;2022-11-13T05:19:43;102276.63;;;2.98;99.15
75298;BME280;63896;45.990;18.688;2022-11-13T05:23:05;102273.63;;;2.92;99.26
75298;BME280;63896;45.990;18.688;2022-11-13T05:26:26;102278.28;;;2.88;99.20
75298;BME280;63896;45.990;18.688;2022-11-13T05:29:47;102267.31;;;2.83;99.27
75298;BME280;63896;45.990;18.688;2022-11-13T05:33:08;102261.72;;;2.87;98.84
75298;BME280;63896;45.990;18.688;2022-11-13T05:36:30;102260.63;;;2.90;99.31
75298;BME280;63896;45.990;18.688;2022-11-13T05:39:51;102255.28;;;2.80;99.33
75298;BME280;63896;45.990;18.688;2022-11-13T05:43:13;102257.31;;;2.77;98.74
75298;BME280;63896;45.990;18.688;2022-11-13T05:46:34;102260.63;;;2.79;99.10
75298;BME280;63896;45.990;18.688;2022-11-13T05:49:56;102263.59;;;2.74;99.64
75298;BME280;63896;45.990;18.688;2022-11-13T05:53:17;102261.38;;;2.92;99.66
75298;BME280;63896;45.990;18.688;2022-11-13T05:56:38;102258.41;;;2.97;99.59
75298;BME280;63896;45.990;18.688;2022-11-13T06:00:00;102260.53;;;3.03;99.07
75298;BME280;63896;45.990;18.688;2022-11-13T06:03:22;102266.63;;;3.03;98.91
75298;BME280;63896;45.990;18.688;2022-11-13T06:06:43;102262.81;;;3.07;98.98
75298;BME280;63896;45.990;18.688;2022-11-13T06:10:04;102258.16;;;3.11;98.73
75298;BME280;63896;45.990;18.688;2022-11-13T06:13:26;102263.38;;;3.22;98.63
75298;BME280;63896;45.990;18.688;2022-11-13T06:16:48;102268.53;;;3.23;98.61
75298;BME280;63896;45.990;18.688;2022-11-13T06:20:09;102263.59;;;3.41;98.11
75298;BME280;63896;45.990;18.688;2022-11-13T06:23:33;102267.03;;;3.53;97.79
75298;BME280;63896;45.990;18.688;2022-11-13T06:26:54;102263.94;;;3.59;97.42
75298;BME280;63896;45.990;18.688;2022-11-13T06:30:16;102263.66;;;3.73;97.35
75298;BME280;63896;45.990;18.688;2022-11-13T06:33:38;102265.16;;;3.87;97.20
75298;BME280;63896;45.990;18.688;2022-11-13T06:37:00;102261.78;;;3.96;96.76
75298;BME280;63896;45.990;18.688;2022-11-13T06:40:21;102267.31;;;4.13;97.09
75298;BME280;63896;45.990;18.688;2022-11-13T06:43:43;102250.44;;;4.27;96.20
75298;BME280;63896;45.990;18.688;2022-11-13T06:47:04;102258.72;;;4.43;95.68
75298;BME280;63896;45.990;18.688;2022-11-13T06:50:26;102254.72;;;4.49;95.72
75298;BME280;63896;45.990;18.688;2022-11-13T06:53:48;102255.81;;;4.67;95.80
75298;BME280;63896;45.990;18.688;2022-11-13T06:57:10;102265.59;;;5.65;93.46
75298;BME280;63896;45.990;18.688;2022-11-13T07:00:31;102275.34;;;7.97;87.27
75298;BME280;63896;45.990;18.688;2022-11-13T07:03:58;102272.31;;;9.73;76.81
75298;BME280;63896;45.990;18.688;2022-11-13T07:07:19;102256.28;;;10.39;76.05
75298;BME280;63896;45.990;18.688;2022-11-13T07:10:41;102268.50;;;10.96;75.09
75298;BME280;63896;45.990;18.688;2022-11-13T07:14:02;102261.66;;;11.41;74.09
75298;BME280;63896;45.990;18.688;2022-11-13T07:17:24;102263.84;;;11.68;73.81
75298;BME280;63896;45.990;18.688;2022-11-13T07:20:45;102257.81;;;12.28;69.40
75298;BME280;63896;45.990;18.688;2022-11-13T07:24:07;102258.69;;;11.98;71.65
75298;BME280;63896;45.990;18.688;2022-11-13T07:27:35;102266.38;;;12.53;68.22
75298;BME280;63896;45.990;18.688;2022-11-13T07:30:57;102262.09;;;13.54;66.95
75298;BME280;63896;45.990;18.688;2022-11-13T07:34:18;102266.75;;;13.52;65.16
75298;BME280;63896;45.990;18.688;2022-11-13T07:37:39;102265.47;;;13.84;62.55
75298;BME280;63896;45.990;18.688;2022-11-13T07:41:01;102257.28;;;14.49;61.71
75298;BME280;63896;45.990;18.688;2022-11-13T07:44:22;102256.78;;;14.67;59.79
75298;BME280;63896;45.990;18.688;2022-11-13T07:48:05;102243.75;;;14.85;58.23
75298;BME280;63896;45.990;18.688;2022-11-13T07:51:26;102245.75;;;15.58;56.14
75298;BME280;63896;45.990;18.688;2022-11-13T07:54:47;102253.66;;;15.86;54.25
75298;BME280;63896;45.990;18.688;2022-11-13T07:58:08;102238.22;;;17.31;50.86
75298;BME280;63896;45.990;18.688;2022-11-13T08:01:30;102248.13;;;16.60;51.55
75298;BME280;63896;45.990;18.688;2022-11-13T08:04:51;102243.16;;;17.34;49.74
75298;BME280;63896;45.990;18.688;2022-11-13T08:08:13;102245.63;;;18.61;45.25
75298;BME280;63896;45.990;18.688;2022-11-13T08:11:35;102235.06;;;18.84;44.19
75298;BME280;63896;45.990;18.688;2022-11-13T08:14:56;102222.88;;;18.14;45.37
75298;BME280;63896;45.990;18.688;2022-11-13T08:18:18;102231.09;;;19.35;42.10
75298;BME280;63896;45.990;18.688;2022-11-13T08:21:40;102230.31;;;19.16;42.51
75298;BME280;63896;45.990;18.688;2022-11-13T08:25:01;102228.88;;;19.50;42.12
75298;BME280;63896;45.990;18.688;2022-11-13T08:28:23;102226.13;;;19.38;42.81
75298;BME280;63896;45.990;18.688;2022-11-13T08:31:44;102217.88;;;19.52;42.04
75298;BME280;63896;45.990;18.688;2022-11-13T08:35:06;102224.34;;;19.92;40.65
75298;BME280;63896;45.990;18.688;2022-11-13T08:38:27;102227.16;;;20.90;38.98
75298;BME280;63896;45.990;18.688;2022-11-13T08:41:49;102225.88;;;18.24;44.54
75298;BME280;63896;45.990;18.688;2022-11-13T08:45:11;102229.38;;;20.00;41.01
75298;BME280;63896;45.990;18.688;2022-11-13T08:48:33;102217.81;;;20.11;40.55
75298;BME280;63896;45.990;18.688;2022-11-13T08:51:54;102221.06;;;20.02;41.13
75298;BME280;63896;45.990;18.688;2022-11-13T08:55:16;102226.94;;;20.10;39.82
75298;BME280;63896;45.990;18.688;2022-11-13T08:58:37;102220.47;;;21.16;38.75
75298;BME280;63896;45.990;18.688;2022-11-13T09:01:59;102232.97;;;20.59;40.30
75298;BME280;63896;45.990;18.688;2022-11-13T09:05:21;102231.81;;;21.58;37.90
75298;BME280;63896;45.990;18.688;2022-11-13T09:08:42;102229.91;;;22.70;34.90
75298;BME280;63896;45.990;18.688;2022-11-13T09:12:04;102231.47;;;22.49;35.52
75298;BME280;63896;45.990;18.688;2022-11-13T09:15:25;102236.38;;;20.77;39.19
75298;BME280;63896;45.990;18.688;2022-11-13T09:18:50;102227.44;;;21.85;37.62
75298;BME280;63896;45.990;18.688;2022-11-13T09:22:12;102217.44;;;21.01;39.47
75298;BME280;63896;45.990;18.688;2022-11-13T09:25:34;102219.19;;;22.42;36.94
75298;BME280;63896;45.990;18.688;2022-11-13T09:28:58;102226.81;;;20.17;41.21
75298;BME280;63896;45.990;18.688;2022-11-13T09:32:20;102213.66;;;21.02;39.41
75298;BME280;63896;45.990;18.688;2022-11-13T09:35:42;102212.59;;;21.03;39.95
75298;BME280;63896;45.990;18.688;2022-11-13T09:39:04;102205.13;;;21.61;39.15
75298;BME280;63896;45.990;18.688;2022-11-13T09:42:27;102194.38;;;21.21;39.73
75298;BME280;63896;45.990;18.688;2022-11-13T09:45:51;102195.00;;;21.00;40.80
75298;BME280;63896;45.990;18.688;2022-11-13T09:49:28;102190.19;;;22.75;36.61
75298;BME280;63896;45.990;18.688;2022-11-13T09:52:51;102178.72;;;22.52;38.28
75298;BME280;63896;45.990;18.688;2022-11-13T09:56:20;102173.81;;;21.94;38.39
75298;BME280;63896;45.990;18.688;2022-11-13T09:59:58;102169.56;;;24.03;34.30
75298;BME280;63896;45.990;18.688;2022-11-13T10:14:40;102133.72;;;23.96;35.04
75298;BME280;63896;45.990;18.688;2022-11-13T10:18:12;102134.78;;;23.32;36.24
75298;BME280;63896;45.990;18.688;2022-11-13T10:21:42;102120.72;;;24.45;34.09
75298;BME280;63896;45.990;18.688;2022-11-13T10:25:15;102121.06;;;24.12;34.79
75298;BME280;63896;45.990;18.688;2022-11-13T10:28:37;102113.00;;;23.80;36.02
75298;BME280;63896;45.990;18.688;2022-11-13T10:32:28;102105.03;;;24.57;34.22
75298;BME280;63896;45.990;18.688;2022-11-13T10:36:10;102099.84;;;23.62;35.65
75298;BME280;63896;45.990;18.688;2022-11-13T10:39:41;102093.69;;;24.71;34.12
75298;BME280;63896;45.990;18.688;2022-11-13T10:46:33;102091.63;;;22.71;37.45
75298;BME280;63896;45.990;18.688;2022-11-13T10:49:55;102091.63;;;22.71;37.66
75298;BME280;63896;45.990;18.688;2022-11-13T10:53:17;102080.81;;;20.71;41.68
75298;BME280;63896;45.990;18.688;2022-11-13T10:56:39;102061.31;;;23.97;35.84
75298;BME280;63896;45.990;18.688;2022-11-13T11:00:01;102057.88;;;24.84;33.81
75298;BME280;63896;45.990;18.688;2022-11-13T11:03:23;102054.25;;;21.70;37.99
75298;BME280;63896;45.990;18.688;2022-11-13T11:06:46;102061.69;;;21.46;38.22
75298;BME280;63896;45.990;18.688;2022-11-13T11:10:35;102054.81;;;19.79;42.64
75298;BME280;63896;45.990;18.688;2022-11-13T11:14:40;102054.78;;;19.44;42.99
75298;BME280;63896;45.990;18.688;2022-11-13T11:18:19;102042.13;;;20.37;41.16
75298;BME280;63896;45.990;18.688;2022-11-13T11:21:42;102050.38;;;19.61;41.69
75298;BME280;63896;45.990;18.688;2022-11-13T11:25:10;102047.22;;;19.87;41.37
75298;BME280;63896;45.990;18.688;2022-11-13T11:36:19;102031.94;;;20.68;39.55
75298;BME280;63896;45.990;18.688;2022-11-13T11:39:54;102023.28;;;20.03;40.98
75298;BME280;63896;45.990;18.688;2022-11-13T11:46:54;102015.09;;;18.86;42.72
75298;BME280;63896;45.990;18.688;2022-11-13T11:50:26;102007.38;;;20.98;39.24
75298;BME280;63896;45.990;18.688;2022-11-13T11:54:35;102006.59;;;20.40;39.83
75298;BME280;63896;45.990;18.688;2022-11-13T11:58:15;101987.03;;;21.07;38.81
75298;BME280;63896;45.990;18.688;2022-11-13T12:09:58;101977.59;;;20.48;39.27
75298;BME280;63896;45.990;18.688;2022-11-13T12:35:49;101944.53;;;20.12;43.63
75298;BME280;63896;45.990;18.688;2022-11-13T12:42:51;101935.63;;;20.12;43.41
75298;BME280;63896;45.990;18.688;2022-11-13T12:46:15;101934.38;;;18.45;47.21
75298;BME280;63896;45.990;18.688;2022-11-13T12:49:37;101921.94;;;20.02;43.82
75298;BME280;63896;45.990;18.688;2022-11-13T12:53:07;101922.13;;;18.01;49.07
75298;BME280;63896;45.990;18.688;2022-11-13T12:56:31;101927.91;;;18.46;48.16
75298;BME280;63896;45.990;18.688;2022-11-13T12:59:55;101931.03;;;19.14;46.19
75298;BME280;63896;45.990;18.688;2022-11-13T13:03:53;101922.38;;;20.50;43.38
75298;BME280;63896;45.990;18.688;2022-11-13T13:11:14;101923.75;;;21.14;41.70
75298;BME280;63896;45.990;18.688;2022-11-13T13:15:15;101924.28;;;21.50;41.02
75298;BME280;63896;45.990;18.688;2022-11-13T13:18:38;101927.88;;;19.40;46.27
75298;BME280;63896;45.990;18.688;2022-11-13T13:22:00;101928.53;;;18.78;47.92
75298;BME280;63896;45.990;18.688;2022-11-13T13:25:31;101933.47;;;17.24;51.96
75298;BME280;63896;45.990;18.688;2022-11-13T13:28:55;101922.03;;;17.10;52.94
75298;BME280;63896;45.990;18.688;2022-11-13T13:46:38;101913.16;;;14.79;61.88
75298;BME280;63896;45.990;18.688;2022-11-13T13:49:59;101904.28;;;14.39;63.71
75298;BME280;63896;45.990;18.688;2022-11-13T13:53:53;101898.94;;;14.39;64.22
75298;BME280;63896;45.990;18.688;2022-11-13T13:57:19;101884.69;;;14.19;64.80
75298;BME280;63896;45.990;18.688;2022-11-13T14:00:42;101884.06;;;14.17;65.35
75298;BME280;63896;45.990;18.688;2022-11-13T14:04:42;101887.47;;;13.91;65.77
75298;BME280;63896;45.990;18.688;2022-11-13T14:08:15;101884.63;;;13.99;65.75
75298;BME280;63896;45.990;18.688;2022-11-13T14:11:38;101886.31;;;13.66;62.16
75298;BME280;63896;45.990;18.688;2022-11-13T14:15:03;101897.78;;;13.60;61.81
75298;BME280;63896;45.990;18.688;2022-11-13T14:18:24;101908.00;;;13.56;61.06
75298;BME280;63896;45.990;18.688;2022-11-13T14:21:52;101896.66;;;13.48;61.52
75298;BME280;63896;45.990;18.688;2022-11-13T14:25:24;101903.38;;;13.37;62.06
75298;BME280;63896;45.990;18.688;2022-11-13T14:28:58;101892.56;;;13.17;62.98
75298;BME280;63896;45.990;18.688;2022-11-13T14:32:27;101896.31;;;13.02;63.57
75298;BME280;63896;45.990;18.688;2022-11-13T14:35:53;101907.94;;;12.94;63.95
75298;BME280;63896;45.990;18.688;2022-11-13T14:39:28;101895.34;;;12.81;64.38
75298;BME280;63896;45.990;18.688;2022-11-13T14:42:56;101898.31;;;12.72;64.71
75298;BME280;63896;45.990;18.688;2022-11-13T14:46:35;101894.34;;;12.61;65.43
75298;BME280;63896;45.990;18.688;2022-11-13T14:50:27;101894.66;;;12.52;65.94
75298;BME280;63896;45.990;18.688;2022-11-13T14:54:02;101881.66;;;12.42;66.43
75298;BME280;63896;45.990;18.688;2022-11-13T14:57:29;101876.19;;;12.29;67.87
75298;BME280;63896;45.990;18.688;2022-11-13T15:00:50;101877.97;;;12.22;67.45
75298;BME280;63896;45.990;18.688;2022-11-13T15:04:11;101888.09;;;12.12;68.26
75298;BME280;63896;45.990;18.688;2022-11-13T15:07:33;101874.06;;;12.03;68.26
75298;BME280;63896;45.990;18.688;2022-11-13T15:10:57;101873.56;;;11.93;69.07
75298;BME280;63896;45.990;18.688;2022-11-13T15:14:19;101864.41;;;11.81;69.95
75298;BME280;63896;45.990;18.688;2022-11-13T15:17:43;101861.25;;;11.63;70.85
75298;BME280;63896;45.990;18.688;2022-11-13T15:21:05;101858.78;;;11.61;70.93
75298;BME280;63896;45.990;18.688;2022-11-13T15:24:26;101854.56;;;11.52;71.29
75298;BME280;63896;45.990;18.688;2022-11-13T15:27:48;101861.09;;;11.50;71.24
75298;BME280;63896;45.990;18.688;2022-11-13T15:31:18;101868.63;;;11.31;72.32
75298;BME280;63896;45.990;18.688;2022-11-13T15:34:40;101861.25;;;11.04;73.70
75298;BME280;63896;45.990;18.688;2022-11-13T15:38:01;101866.06;;;10.86;74.43
75298;BME280;63896;45.990;18.688;2022-11-13T15:41:26;101860.41;;;10.66;75.89
75298;BME280;63896;45.990;18.688;2022-11-13T15:44:48;101863.31;;;10.57;77.95
75298;BME280;63896;45.990;18.688;2022-11-13T15:48:10;101869.22;;;10.44;78.84
75298;BME280;63896;45.990;18.688;2022-11-13T15:51:35;101880.13;;;10.26;78.75
75298;BME280;63896;45.990;18.688;2022-11-13T15:54:58;101876.38;;;10.04;79.03
75298;BME280;63896;45.990;18.688;2022-11-13T15:58:19;101892.69;;;9.93;80.44
75298;BME280;63896;45.990;18.688;2022-11-13T16:01:41;101888.94;;;9.80;81.87
75298;BME280;63896;45.990;18.688;2022-11-13T16:05:02;101899.41;;;9.73;82.00
75298;BME280;63896;45.990;18.688;2022-11-13T16:08:24;101887.06;;;9.57;82.79
75298;BME280;63896;45.990;18.688;2022-11-13T16:11:45;101889.56;;;9.43;83.41
75298;BME280;63896;45.990;18.688;2022-11-13T16:15:07;101891.72;;;9.39;84.44
75298;BME280;63896;45.990;18.688;2022-11-13T16:18:29;101894.56;;;9.30;85.62
75298;BME280;63896;45.990;18.688;2022-11-13T16:21:51;101891.75;;;9.31;86.18
75298;BME280;63896;45.990;18.688;2022-11-13T16:25:19;101891.94;;;9.14;86.85
75298;BME280;63896;45.990;18.688;2022-11-13T16:28:41;101892.13;;;9.04;87.46
75298;BME280;63896;45.990;18.688;2022-11-13T16:32:22;101893.63;;;8.90;87.30
75298;BME280;63896;45.990;18.688;2022-11-13T16:35:43;101897.94;;;8.83;87.58
75298;BME280;63896;45.990;18.688;2022-11-13T16:39:07;101910.81;;;8.78;88.78
75298;BME280;63896;45.990;18.688;2022-11-13T16:42:31;101923.06;;;8.71;88.89
75298;BME280;63896;45.990;18.688;2022-11-13T16:45:52;101916.09;;;8.62;88.87
75298;BME280;63896;45.990;18.688;2022-11-13T16:49:14;101920.41;;;8.63;89.97
75298;BME280;63896;45.990;18.688;2022-11-13T16:52:39;101922.38;;;8.53;89.90
75298;BME280;63896;45.990;18.688;2022-11-13T16:56:00;101914.47;;;8.53;91.10
75298;BME280;63896;45.990;18.688;2022-11-13T16:59:22;101921.88;;;8.41;90.56
75298;BME280;63896;45.990;18.688;2022-11-13T17:02:44;101925.97;;;8.36;90.49
75298;BME280;63896;45.990;18.688;2022-11-13T17:06:05;101924.78;;;8.30;91.42
75298;BME280;63896;45.990;18.688;2022-11-13T17:09:31;101923.09;;;8.21;91.42
75298;BME280;63896;45.990;18.688;2022-11-13T17:12:53;101927.88;;;8.18;91.98
75298;BME280;63896;45.990;18.688;2022-11-13T17:16:14;101919.75;;;8.11;92.32
75298;BME280;63896;45.990;18.688;2022-11-13T17:19:37;101919.56;;;8.04;93.04
75298;BME280;63896;45.990;18.688;2022-11-13T17:23:04;101910.53;;;8.07;92.55
75298;BME280;63896;45.990;18.688;2022-11-13T17:26:26;101919.59;;;8.12;92.78
75298;BME280;63896;45.990;18.688;2022-11-13T17:29:48;101915.22;;;8.29;92.57
75298;BME280;63896;45.990;18.688;2022-11-13T17:33:09;101910.03;;;8.20;92.43
75298;BME280;63896;45.990;18.688;2022-11-13T17:36:31;101913.38;;;8.22;92.62
75298;BME280;63896;45.990;18.688;2022-11-13T17:39:53;101915.00;;;8.14;92.31
75298;BME280;63896;45.990;18.688;2022-11-13T17:43:14;101913.38;;;8.22;91.82
75298;BME280;63896;45.990;18.688;2022-11-13T17:46:35;101913.78;;;8.51;90.51
75298;BME280;63896;45.990;18.688;2022-11-13T17:49:57;101914.75;;;8.42;90.12
75298;BME280;63896;45.990;18.688;2022-11-13T17:53:27;101906.34;;;8.54;89.46
75298;BME280;63896;45.990;18.688;2022-11-13T17:56:49;101913.13;;;8.65;88.76
75298;BME280;63896;45.990;18.688;2022-11-13T18:00:12;101912.97;;;8.58;88.88
75298;BME280;63896;45.990;18.688;2022-11-13T18:03:34;101912.97;;;8.58;88.63
75298;BME280;63896;45.990;18.688;2022-11-13T18:06:56;101905.19;;;8.57;88.64
75298;BME280;63896;45.990;18.688;2022-11-13T18:10:18;101914.28;;;8.71;88.09
75298;BME280;63896;45.990;18.688;2022-11-13T18:13:44;101906.84;;;8.74;87.81
75298;BME280;63896;45.990;18.688;2022-11-13T18:17:06;101909.16;;;8.69;87.55
75298;BME280;63896;45.990;18.688;2022-11-13T18:20:28;101910.81;;;8.70;87.65
75298;BME280;63896;45.990;18.688;2022-11-13T18:27:24;101900.56;;;8.67;87.43
75298;BME280;63896;45.990;18.688;2022-11-13T18:30:45;101909.81;;;8.55;87.78
75298;BME280;63896;45.990;18.688;2022-11-13T18:34:15;101909.66;;;8.48;88.02
75298;BME280;63896;45.990;18.688;2022-11-13T18:37:36;101905.81;;;8.35;88.76
75298;BME280;63896;45.990;18.688;2022-11-13T18:41:07;101901.19;;;8.37;88.67
75298;BME280;63896;45.990;18.688;2022-11-13T18:44:29;101900.50;;;8.35;88.10
75298;BME280;63896;45.990;18.688;2022-11-13T18:47:50;101902.31;;;8.34;88.36
75298;BME280;63896;45.990;18.688;2022-11-13T18:51:17;101901.81;;;8.31;88.52
75298;BME280;63896;45.990;18.688;2022-11-13T18:54:39;101900.28;;;8.20;88.62
75298;BME280;63896;45.990;18.688;2022-11-13T18:58:00;101899.13;;;8.14;88.66
75298;BME280;63896;45.990;18.688;2022-11-13T19:01:24;101908.66;;;8.07;89.18
75298;BME280;63896;45.990;18.688;2022-11-13T19:04:45;101902.91;;;8.12;89.05